Time;durP1;ratioP1;P1;durP2;ratioP2;P2;SDS_P1;SDS_P2;PMS_P1;PMS_P2;Temp;Humidity;BMP_temperature;BMP_pressure;BME280_temperature;BME280_humidity;BME280_pressure;Samples;Min_cycle;Max_cycle;Signal;HPM_P1;HPM_P2
2020/12/19 00:00:39;;;;;;;7.63;6.83;;;6.60;99.90;;;;;;5066578;28;20183;-58
2020/12/19 00:03:05;;;;;;;7.70;6.90;;;6.80;99.90;;;;;;5068023;28;20221;-59
2020/12/19 00:05:31;;;;;;;8.43;7.53;;;6.50;99.90;;;;;;5068010;28;20230;-59
2020/12/19 00:07:57;;;;;;;7.88;7.15;;;6.80;99.90;;;;;;5067778;28;20438;-59
2020/12/19 00:10:22;;;;;;;8.03;7.23;;;6.60;99.90;;;;;;5067611;28;20200;-60
2020/12/19 00:12:48;;;;;;;8.30;7.10;;;6.80;99.90;;;;;;5067919;28;20274;-60
2020/12/19 00:15:14;;;;;;;7.60;6.80;;;6.70;99.90;;;;;;5071932;28;20569;-57
2020/12/19 00:17:40;;;;;;;7.43;6.43;;;6.70;99.90;;;;;;5071939;28;20190;-59
2020/12/19 00:20:06;;;;;;;7.18;6.40;;;6.80;99.90;;;;;;5072093;28;20192;-60
2020/12/19 00:22:32;;;;;;;7.77;7.00;;;6.60;99.90;;;;;;5072436;28;20313;-59
2020/12/19 00:24:58;;;;;;;9.10;7.40;;;6.50;99.90;;;;;;5071759;28;20489;-59
2020/12/19 00:27:23;;;;;;;8.80;7.10;;;6.60;99.90;;;;;;5069248;28;20199;-60
2020/12/19 00:29:49;;;;;;;9.73;7.17;;;6.80;99.90;;;;;;5062742;28;20186;-59
2020/12/19 00:32:14;;;;;;;8.37;7.37;;;6.70;99.90;;;;;;5071961;28;20276;-59
2020/12/19 00:34:40;;;;;;;6.70;5.90;;;6.50;99.90;;;;;;5071844;28;20689;-59
2020/12/19 00:37:05;;;;;;;9.10;6.27;;;6.40;99.90;;;;;;5072108;28;20236;-60
2020/12/19 00:39:31;;;;;;;6.47;5.77;;;6.50;99.90;;;;;;5071723;28;20187;-60
2020/12/19 00:41:57;;;;;;;8.20;6.60;;;6.70;99.90;;;;;;5072310;28;20645;-59
2020/12/19 00:44:23;;;;;;;8.20;6.87;;;6.60;99.90;;;;;;5071610;28;20469;-59
2020/12/19 00:46:52;;;;;;;11.07;7.07;;;6.70;99.90;;;;;;5071657;28;20252;-59
2020/12/19 00:49:18;;;;;;;8.02;7.10;;;6.80;99.90;;;;;;5071358;28;20666;-59
2020/12/19 00:51:44;;;;;;;6.95;6.05;;;6.50;99.90;;;;;;5071473;28;20608;-59
2020/12/19 00:54:10;;;;;;;8.30;5.97;;;6.50;99.90;;;;;;5071227;28;20186;-59
2020/12/19 00:56:36;;;;;;;7.43;6.33;;;6.70;99.90;;;;;;5071343;28;20462;-59
2020/12/19 00:59:02;;;;;;;9.20;6.60;;;6.80;99.90;;;;;;5069525;28;20949;-59
2020/12/19 01:01:28;;;;;;;6.53;5.93;;;6.80;99.90;;;;;;5071326;28;20934;-62
2020/12/19 01:03:55;;;;;;;6.10;5.33;;;6.50;99.90;;;;;;5065569;28;20458;-59
2020/12/19 01:06:22;;;;;;;7.07;6.38;;;6.70;99.90;;;;;;5070306;28;20451;-59
2020/12/19 01:08:50;;;;;;;8.05;6.78;;;6.80;99.90;;;;;;5070861;28;20268;-59
2020/12/19 01:11:18;;;;;;;8.32;6.35;;;6.90;99.90;;;;;;5071109;28;20183;-59
2020/12/19 01:13:44;;;;;;;6.20;5.60;;;6.60;99.90;;;;;;5071435;28;20563;-59
2020/12/19 01:16:17;;;;;;;7.28;6.57;;;6.60;99.90;;;;;;5071135;28;20261;-59
2020/12/19 01:18:47;;;;;;;8.35;6.45;;;6.60;99.90;;;;;;5072254;28;20185;-59
2020/12/19 01:21:18;;;;;;;6.68;5.97;;;6.60;99.90;;;;;;5072015;28;20208;-59
2020/12/19 01:23:46;;;;;;;6.32;5.75;;;6.00;99.90;;;;;;5070733;28;20203;-59
2020/12/19 01:26:11;;;;;;;6.20;5.47;;;6.50;99.90;;;;;;5085911;28;20228;-59
2020/12/19 01:28:37;;;;;;;5.80;5.30;;;6.80;99.90;;;;;;5067429;28;20194;-60
2020/12/19 01:31:05;;;;;;;6.40;5.80;;;6.50;99.90;;;;;;5070811;28;20183;-59
2020/12/19 01:33:31;;;;;;;6.72;6.13;;;6.30;99.90;;;;;;5071250;28;20203;-59
2020/12/19 01:35:57;;;;;;;8.50;6.32;;;6.40;99.90;;;;;;5070393;28;20601;-59
2020/12/19 01:38:23;;;;;;;8.77;5.82;;;6.70;99.90;;;;;;5072120;28;20264;-59
2020/12/19 01:40:53;;;;;;;7.33;6.63;;;6.60;99.90;;;;;;5070353;28;20312;-59
2020/12/19 01:43:19;;;;;;;6.22;5.63;;;6.50;99.90;;;;;;5061489;28;20458;-59
2020/12/19 01:45:45;;;;;;;7.28;6.40;;;6.30;99.90;;;;;;5070124;28;21013;-59
2020/12/19 01:48:18;;;;;;;6.23;5.63;;;6.40;99.90;;;;;;5070183;28;20180;-59
2020/12/19 01:50:45;;;;;;;6.50;5.88;;;6.50;99.90;;;;;;5070527;28;20438;-59
2020/12/19 01:53:11;;;;;;;6.70;5.70;;;6.20;99.90;;;;;;5070341;28;20181;-59
2020/12/19 01:55:37;;;;;;;7.13;6.27;;;6.30;99.90;;;;;;5070011;28;20220;-59
2020/12/19 01:58:02;;;;;;;8.63;5.93;;;6.40;99.90;;;;;;5070026;28;20665;-59
2020/12/19 02:00:28;;;;;;;7.40;5.93;;;6.30;99.90;;;;;;5071292;28;20198;-59
2020/12/19 02:02:53;;;;;;;6.83;6.10;;;6.20;99.90;;;;;;5060147;28;20215;-59
2020/12/19 02:05:19;;;;;;;7.30;5.83;;;6.20;99.90;;;;;;5067146;28;20190;-59
2020/12/19 02:07:45;;;;;;;7.00;6.30;;;6.30;99.90;;;;;;5070014;28;20426;-59
2020/12/19 02:10:10;;;;;;;7.27;6.07;;;6.00;99.90;;;;;;5069911;28;20194;-60
2020/12/19 02:12:36;;;;;;;6.70;6.10;;;6.10;99.90;;;;;;5070045;28;20191;-60
2020/12/19 02:15:02;;;;;;;6.63;6.03;;;6.10;99.90;;;;;;5069837;28;20236;-59
2020/12/19 02:17:28;;;;;;;7.10;6.38;;;6.10;99.90;;;;;;5069618;28;20571;-59
2020/12/19 02:19:53;;;;;;;5.80;5.30;;;6.10;99.90;;;;;;5069546;28;20229;-59
2020/12/19 02:22:19;;;;;;;7.37;6.30;;;6.00;99.90;;;;;;5070044;28;20181;-59
2020/12/19 02:24:44;;;;;;;6.87;5.70;;;6.00;99.90;;;;;;5069523;28;20750;-59
2020/12/19 02:27:10;;;;;;;6.83;6.07;;;6.10;99.90;;;;;;5068731;28;20273;-57
2020/12/19 02:29:35;;;;;;;6.27;5.67;;;6.20;99.90;;;;;;5069351;28;20537;-59
2020/12/19 02:32:02;;;;;;;6.10;5.50;;;6.00;99.90;;;;;;5070347;28;20306;-59
2020/12/19 02:34:28;;;;;;;7.07;6.40;;;6.20;99.90;;;;;;5069523;28;20187;-59
2020/12/19 02:36:54;;;;;;;6.75;6.00;;;6.10;99.90;;;;;;5068806;28;20216;-59
2020/12/19 02:39:20;;;;;;;6.35;5.75;;;6.00;99.90;;;;;;5069343;28;20225;-59
2020/12/19 02:41:47;;;;;;;7.40;6.07;;;5.80;99.90;;;;;;5069187;28;20567;-59
2020/12/19 02:44:16;;;;;;;5.85;5.30;;;6.20;99.90;;;;;;5069275;28;20703;-60
2020/12/19 02:46:42;;;;;;;6.47;5.68;;;6.20;99.90;;;;;;5069093;28;20215;-59
2020/12/19 02:49:08;;;;;;;7.80;5.67;;;5.80;99.90;;;;;;5068969;28;20566;-59
2020/12/19 02:51:34;;;;;;;6.65;5.63;;;5.80;99.90;;;;;;5069056;28;20934;-59
2020/12/19 02:54:00;;;;;;;5.73;5.13;;;6.00;99.90;;;;;;5069097;28;20188;-59
2020/12/19 02:56:25;;;;;;;7.33;6.50;;;6.10;99.90;;;;;;5068715;28;20303;-60
2020/12/19 02:58:51;;;;;;;6.57;5.97;;;6.10;99.90;;;;;;5068903;28;20187;-59
2020/12/19 03:01:16;;;;;;;6.53;5.47;;;6.00;99.90;;;;;;5068601;28;20183;-59
2020/12/19 03:03:42;;;;;;;8.83;6.10;;;6.10;99.90;;;;;;5068795;28;20575;-60
2020/12/19 03:06:08;;;;;;;6.30;5.40;;;6.20;99.90;;;;;;5066827;28;20247;-59
2020/12/19 03:08:33;;;;;;;5.53;5.03;;;6.10;99.90;;;;;;5068591;28;20190;-59
2020/12/19 03:10:59;;;;;;;5.87;5.33;;;6.30;99.90;;;;;;5068713;28;20532;-59
2020/12/19 03:13:28;;;;;;;6.10;5.37;;;6.20;99.90;;;;;;5068635;28;20193;-59
2020/12/19 03:15:53;;;;;;;6.22;5.63;;;6.20;99.90;;;;;;5068292;28;20479;-59
2020/12/19 03:18:19;;;;;;;7.63;5.80;;;6.20;99.90;;;;;;5068507;28;20214;-59
2020/12/19 03:20:45;;;;;;;7.80;5.53;;;6.20;99.90;;;;;;5068389;28;20184;-60
2020/12/19 03:23:10;;;;;;;5.70;4.97;;;6.30;99.90;;;;;;5068307;28;20211;-59
2020/12/19 03:25:36;;;;;;;6.00;5.27;;;6.10;99.90;;;;;;5068321;28;20218;-60
2020/12/19 03:28:01;;;;;;;5.40;4.90;;;6.00;99.90;;;;;;5059086;28;20176;-59
2020/12/19 03:30:27;;;;;;;6.50;5.77;;;6.10;99.90;;;;;;5067832;28;20188;-59
2020/12/19 03:32:54;;;;;;;5.93;4.63;;;6.30;99.90;;;;;;5068418;28;20229;-59
2020/12/19 03:35:21;;;;;;;6.32;4.80;;;6.10;99.90;;;;;;5068285;28;20811;-60
2020/12/19 03:37:47;;;;;;;6.63;5.55;;;6.20;99.90;;;;;;5068466;28;20197;-59
2020/12/19 03:40:13;;;;;;;6.43;5.50;;;6.20;99.90;;;;;;5068074;28;20191;-60
2020/12/19 03:42:39;;;;;;;6.95;6.25;;;6.20;99.90;;;;;;5068155;28;20430;-59
2020/12/19 03:45:06;;;;;;;5.90;4.83;;;6.20;99.90;;;;;;5067999;28;20179;-59
2020/12/19 03:47:32;;;;;;;5.45;4.95;;;6.00;99.90;;;;;;5067467;28;20448;-60
2020/12/19 03:49:59;;;;;;;5.73;5.10;;;6.00;99.90;;;;;;5067862;28;20200;-60
2020/12/19 03:52:25;;;;;;;5.43;4.93;;;6.00;99.90;;;;;;5068502;28;20433;-59
2020/12/19 03:54:51;;;;;;;6.27;5.07;;;5.90;99.90;;;;;;5068633;28;20183;-59
2020/12/19 03:57:16;;;;;;;6.23;5.17;;;5.90;99.90;;;;;;5067825;28;20625;-59
2020/12/19 03:59:42;;;;;;;6.20;5.40;;;6.00;99.90;;;;;;5064459;28;20672;-59
2020/12/19 04:02:08;;;;;;;5.50;4.90;;;5.80;99.90;;;;;;5067506;28;20560;-59
2020/12/19 04:04:34;;;;;;;6.07;5.47;;;5.60;99.90;;;;;;5064528;28;20512;-59
2020/12/19 04:07:01;;;;;;;6.70;6.00;;;5.90;99.90;;;;;;5057781;28;20680;-60
2020/12/19 04:09:27;;;;;;;5.18;4.75;;;5.80;99.90;;;;;;5069230;28;20874;-59
2020/12/19 04:11:53;;;;;;;5.63;5.13;;;6.00;99.90;;;;;;5068089;28;20181;-59
2020/12/19 04:14:19;;;;;;;7.23;5.40;;;5.60;99.90;;;;;;5068077;28;20185;-59
2020/12/19 04:16:48;;;;;;;5.60;5.10;;;6.00;99.90;;;;;;5067826;28;20207;-59
2020/12/19 04:19:14;;;;;;;5.40;4.90;;;5.70;99.90;;;;;;5067786;28;20192;-59
2020/12/19 04:21:40;;;;;;;6.63;5.45;;;6.10;99.90;;;;;;5067869;28;20179;-59
2020/12/19 04:24:06;;;;;;;4.90;4.47;;;5.90;99.90;;;;;;5067812;28;20260;-59
2020/12/19 04:26:31;;;;;;;5.80;4.90;;;6.10;99.90;;;;;;5067628;28;20276;-59
2020/12/19 04:28:57;;;;;;;6.37;4.90;;;5.90;99.90;;;;;;5064962;28;20565;-59
2020/12/19 04:31:22;;;;;;;6.63;5.20;;;5.30;99.90;;;;;;5069258;28;20533;-58
2020/12/19 04:33:48;;;;;;;6.90;5.83;;;5.90;99.90;;;;;;5067834;28;20563;-59
2020/12/19 04:36:14;;;;;;;4.90;4.40;;;5.70;99.90;;;;;;5067524;28;20850;-59
2020/12/19 04:38:39;;;;;;;6.17;5.10;;;5.40;99.90;;;;;;5067653;28;20264;-59
2020/12/19 04:41:05;;;;;;;5.73;4.47;;;6.00;99.90;;;;;;5067530;28;20181;-59
2020/12/19 04:43:32;;;;;;;5.20;4.70;;;5.60;99.90;;;;;;5067457;28;20211;-59
2020/12/19 04:45:59;;;;;;;5.25;4.75;;;5.80;99.90;;;;;;5067651;28;20202;-59
2020/12/19 04:48:26;;;;;;;4.93;4.53;;;5.60;99.90;;;;;;5067251;28;20186;-59
2020/12/19 04:50:51;;;;;;;8.82;7.93;;;5.90;99.90;;;;;;5067467;28;20209;-59
2020/12/19 04:53:19;;;;;;;4.90;4.50;;;6.00;99.90;;;;;;5067579;28;20670;-59
2020/12/19 04:55:46;;;;;;;5.22;4.75;;;5.70;99.90;;;;;;5067409;28;20284;-59
2020/12/19 04:58:14;;;;;;;6.10;5.50;;;5.60;99.90;;;;;;5067501;28;20250;-59
2020/12/19 05:00:41;;;;;;;6.40;5.80;;;5.60;99.90;;;;;;5070418;28;20231;-60
2020/12/19 05:03:06;;;;;;;6.88;4.75;;;5.60;99.90;;;;;;5070690;28;20205;-59
2020/12/19 05:05:34;;;;;;;5.93;5.27;;;5.80;99.90;;;;;;5071052;28;20416;-59
2020/12/19 05:07:59;;;;;;;6.28;5.78;;;5.60;99.90;;;;;;5070413;28;20421;-59
2020/12/19 05:10:25;;;;;;;6.40;5.17;;;5.70;99.90;;;;;;5070888;28;20232;-59
2020/12/19 05:12:52;;;;;;;5.80;4.93;;;5.80;99.90;;;;;;5071056;28;20186;-59
2020/12/19 05:15:18;;;;;;;8.00;4.70;;;5.50;99.90;;;;;;5071086;28;20177;-59
2020/12/19 05:17:52;;;;;;;5.47;4.97;;;5.50;99.90;;;;;;5070652;28;20177;-59
2020/12/19 05:20:19;;;;;;;9.88;5.65;;;5.50;99.90;;;;;;5071098;28;20638;-59
2020/12/19 05:22:47;;;;;;;7.47;5.80;;;5.60;99.90;;;;;;5070414;28;20211;-59
2020/12/19 05:25:15;;;;;;;5.80;5.22;;;5.60;99.90;;;;;;5057128;28;20545;-58
2020/12/19 05:27:46;;;;;;;7.07;5.22;;;5.50;99.90;;;;;;5070691;28;20540;-59
2020/12/19 05:30:12;;;;;;;6.15;5.32;;;5.80;99.90;;;;;;5070809;28;20210;-59
2020/12/19 05:32:47;;;;;;;6.30;5.15;;;5.00;99.90;;;;;;5072200;28;20209;-59
2020/12/19 05:35:23;;;;;;;5.35;4.47;;;5.60;99.90;;;;;;5070470;28;20620;-59
2020/12/19 05:38:15;;;;;;;5.00;4.60;;;5.60;99.90;;;;;;5070344;28;20184;-59
2020/12/19 05:40:41;;;;;;;5.88;5.00;;;5.80;99.90;;;;;;5065683;28;20234;-59
2020/12/19 05:43:06;;;;;;;4.97;4.53;;;5.40;99.90;;;;;;5070310;28;20203;-58
2020/12/19 05:45:32;;;;;;;5.30;4.90;;;5.50;99.90;;;;;;5070589;28;20180;-59
2020/12/19 05:47:58;;;;;;;6.27;5.60;;;5.50;99.90;;;;;;5069868;28;20174;-59
2020/12/19 05:50:24;;;;;;;5.33;4.83;;;5.60;99.90;;;;;;5070254;28;20442;-59
2020/12/19 05:52:50;;;;;;;5.57;5.07;;;5.30;99.90;;;;;;5070287;28;20439;-59
2020/12/19 05:55:17;;;;;;;5.47;4.80;;;5.60;99.90;;;;;;5070214;28;20189;-59
2020/12/19 05:57:44;;;;;;;5.05;4.32;;;5.60;99.90;;;;;;5070157;28;20438;-58
2020/12/19 06:00:14;;;;;;;6.70;4.68;;;5.60;99.90;;;;;;5070271;28;20549;-58
2020/12/19 06:02:41;;;;;;;7.47;4.75;;;5.70;99.90;;;;;;5069871;28;20529;-58
2020/12/19 06:05:08;;;;;;;5.20;4.70;;;5.40;99.90;;;;;;5071472;28;20188;-57
2020/12/19 06:07:39;;;;;;;5.65;5.05;;;5.70;99.90;;;;;;5071015;28;20705;-59
2020/12/19 06:10:11;;;;;;;6.90;5.65;;;5.50;99.90;;;;;;5058173;28;20173;-58
2020/12/19 06:12:54;;;;;;;7.45;5.60;;;5.20;99.90;;;;;;5063945;28;20556;-58
2020/12/19 06:15:54;;;;;;;7.90;5.43;;;5.20;99.90;;;;;;5060960;28;20181;-58
2020/12/19 06:18:44;;;;;;;5.80;5.03;;;5.30;99.90;;;;;;5064373;28;20181;-58
2020/12/19 06:21:11;;;;;;;7.00;5.30;;;5.10;99.90;;;;;;5069977;28;20437;-58
2020/12/19 06:23:38;;;;;;;5.78;4.60;;;5.40;99.90;;;;;;5069750;28;20244;-57
2020/12/19 06:26:04;;;;;;;5.30;4.68;;;5.20;99.90;;;;;;5069581;28;20305;-58
2020/12/19 06:28:39;;;;;;;5.50;5.00;;;5.40;99.90;;;;;;5068225;28;20331;-58
2020/12/19 06:31:11;;;;;;;6.95;4.80;;;5.20;99.90;;;;;;5069403;28;20245;-59
2020/12/19 06:33:39;;;;;;;5.10;4.60;;;5.50;99.90;;;;;;5070668;28;20231;-58
2020/12/19 06:36:25;;;;;;;6.55;5.88;;;5.30;99.90;;;;;;5069619;28;20205;-58
2020/12/19 06:38:54;;;;;;;8.25;6.15;;;5.40;99.90;;;;;;5069302;28;20200;-58
2020/12/19 06:41:38;;;;;;;8.32;5.63;;;5.10;99.90;;;;;;5069591;28;20578;-58
2020/12/19 06:44:15;;;;;;;8.00;6.47;;;5.10;99.90;;;;;;5068761;28;20216;-58
2020/12/19 06:46:40;;;;;;;7.15;5.75;;;5.10;99.90;;;;;;5069423;28;20201;-58
2020/12/19 06:49:25;;;;;;;6.53;5.83;;;4.90;99.90;;;;;;5068791;28;20177;-58
2020/12/19 06:52:00;;;;;;;5.93;5.05;;;4.70;99.90;;;;;;5070516;28;20978;-58
2020/12/19 06:54:31;;;;;;;6.68;5.20;;;4.60;99.90;;;;;;5069077;28;20322;-58
2020/12/19 06:56:58;;;;;;;6.55;5.82;;;4.50;99.90;;;;;;5068973;28;20209;-58
2020/12/19 06:59:29;;;;;;;6.75;6.05;;;4.60;99.90;;;;;;5065209;28;20186;-59
2020/12/19 07:02:14;;;;;;;7.50;6.00;;;4.70;99.90;;;;;;5067865;28;20193;-59
2020/12/19 07:04:40;;;;;;;8.57;5.63;;;4.50;99.90;;;;;;5065612;28;20194;-58
2020/12/19 07:07:11;;;;;;;7.30;6.60;;;4.50;99.90;;;;;;5065644;28;20737;-58
2020/12/19 07:09:38;;;;;;;6.32;5.55;;;4.30;99.90;;;;;;5068886;28;20219;-58
2020/12/19 07:12:04;;;;;;;8.75;6.25;;;4.50;99.90;;;;;;5068831;28;20227;-59
2020/12/19 07:14:42;;;;;;;6.53;5.93;;;4.50;99.90;;;;;;5068554;28;20780;-58
2020/12/19 07:17:18;;;;;;;8.20;6.20;;;4.60;99.90;;;;;;5068595;28;20204;-59
2020/12/19 07:19:59;;;;;;;7.25;6.15;;;4.50;99.90;;;;;;5068539;28;20212;-58
2020/12/19 07:22:26;;;;;;;8.25;6.10;;;4.80;99.90;;;;;;5068218;28;20239;-59
2020/12/19 07:24:53;;;;;;;8.15;6.50;;;3.90;99.90;;;;;;5068161;28;20217;-58
2020/12/19 07:27:20;;;;;;;7.10;5.50;;;4.70;99.90;;;;;;5065065;28;20235;-58
2020/12/19 07:29:45;;;;;;;8.20;6.20;;;4.60;99.90;;;;;;5065317;28;20545;-59
2020/12/19 07:32:11;;;;;;;8.17;6.53;;;4.60;99.90;;;;;;5069302;28;20274;-58
2020/12/19 07:34:37;;;;;;;8.00;6.50;;;4.70;99.90;;;;;;5068036;28;20592;-58
2020/12/19 07:37:03;;;;;;;7.00;5.80;;;4.70;99.90;;;;;;5068319;28;20450;-58
2020/12/19 07:39:28;;;;;;;8.07;6.20;;;4.90;99.90;;;;;;5067821;28;20195;-59
2020/12/19 07:42:02;;;;;;;7.30;6.60;;;4.90;99.90;;;;;;5068095;28;20924;-58
2020/12/19 07:44:28;;;;;;;7.55;6.60;;;4.90;99.90;;;;;;5067670;28;20228;-59
2020/12/19 07:46:55;;;;;;;8.65;6.32;;;4.50;99.90;;;;;;5067939;28;20201;-58
2020/12/19 07:49:30;;;;;;;7.20;6.50;;;5.20;99.90;;;;;;5069419;28;20180;-58
2020/12/19 07:52:06;;;;;;;10.20;6.70;;;5.20;99.90;;;;;;5068400;28;20177;-58
2020/12/19 07:54:32;;;;;;;7.85;6.32;;;4.90;99.90;;;;;;5067696;28;20181;-59
2020/12/19 07:56:59;;;;;;;7.93;6.93;;;5.00;99.90;;;;;;5067612;28;20480;-59
2020/12/19 07:59:25;;;;;;;8.10;6.60;;;4.90;99.90;;;;;;5067772;28;20448;-59
2020/12/19 08:01:52;;;;;;;6.90;6.28;;;4.90;99.90;;;;;;5068345;28;20220;-59
2020/12/19 08:04:18;;;;;;;7.07;6.32;;;5.20;99.90;;;;;;5067548;28;20673;-59
2020/12/19 08:06:50;;;;;;;10.20;6.07;;;4.60;99.90;;;;;;5064499;28;20209;-59
2020/12/19 08:09:20;;;;;;;8.45;6.68;;;5.10;99.90;;;;;;5066102;28;20673;-58
2020/12/19 08:11:48;;;;;;;7.60;6.80;;;4.90;99.90;;;;;;5068143;28;20302;-59
2020/12/19 08:14:21;;;;;;;8.85;6.60;;;5.00;99.90;;;;;;5067941;28;20202;-59
2020/12/19 08:16:48;;;;;;;8.52;6.40;;;4.70;99.90;;;;;;5067731;28;20761;-59
2020/12/19 08:19:35;;;;;;;10.95;7.28;;;4.90;99.90;;;;;;5067337;28;20200;-59
2020/12/19 08:22:04;;;;;;;9.05;7.18;;;4.90;99.90;;;;;;5068001;28;20662;-59
2020/12/19 08:24:30;;;;;;;9.50;7.82;;;5.10;99.90;;;;;;5067514;28;20374;-59
2020/12/19 08:27:29;;;;;;;9.03;7.63;;;5.50;99.90;;;;;;5067849;28;20735;-59
2020/12/19 08:30:01;;;;;;;9.13;7.10;;;5.30;99.90;;;;;;5073925;28;20208;-60
2020/12/19 08:32:30;;;;;;;8.23;7.30;;;5.40;99.90;;;;;;5067488;28;20185;-59
2020/12/19 08:34:55;;;;;;;10.10;7.55;;;5.50;99.90;;;;;;5069486;28;20183;-59
2020/12/19 08:37:21;;;;;;;7.77;7.07;;;5.20;99.90;;;;;;5071452;28;20227;-59
2020/12/19 08:40:06;;;;;;;13.55;7.88;;;5.60;99.90;;;;;;5071552;28;20177;-59
2020/12/19 08:42:32;;;;;;;7.53;6.72;;;5.60;99.90;;;;;;5071453;28;20314;-59
2020/12/19 08:45:16;;;;;;;9.07;7.60;;;5.50;99.90;;;;;;5071205;28;20207;-59
2020/12/19 08:47:42;;;;;;;9.93;8.15;;;5.50;99.90;;;;;;5071439;28;20221;-59
2020/12/19 08:50:08;;;;;;;8.57;7.45;;;5.50;99.90;;;;;;5071051;28;20175;-59
2020/12/19 08:52:36;;;;;;;17.30;9.70;;;5.70;99.90;;;;;;5071269;28;20224;-59
2020/12/19 08:55:01;;;;;;;9.77;8.73;;;6.10;99.90;;;;;;5071146;28;20181;-59
2020/12/19 08:57:31;;;;;;;10.00;8.13;;;6.00;99.90;;;;;;5071210;28;20201;-59
2020/12/19 09:00:13;;;;;;;10.23;8.40;;;5.90;99.90;;;;;;5067940;28;20508;-59
2020/12/19 09:02:41;;;;;;;7.55;6.85;;;5.90;99.90;;;;;;5051463;28;20603;-59
2020/12/19 09:05:07;;;;;;;8.77;7.55;;;6.40;99.90;;;;;;5070158;28;20670;-59
2020/12/19 09:07:33;;;;;;;7.70;6.80;;;6.10;99.90;;;;;;5064474;28;20252;-58
2020/12/19 09:09:58;;;;;;;9.47;8.47;;;6.20;99.90;;;;;;5052663;28;20441;-59
2020/12/19 09:12:24;;;;;;;8.03;7.07;;;6.30;99.90;;;;;;5069591;28;20436;-59
2020/12/19 09:14:50;;;;;;;10.00;8.00;;;6.20;99.90;;;;;;5070863;28;20417;-59
2020/12/19 09:17:29;;;;;;;8.20;7.38;;;6.40;99.90;;;;;;5070323;28;20218;-59
2020/12/19 09:20:05;;;;;;;8.68;7.82;;;6.70;99.90;;;;;;5070471;28;20205;-59
2020/12/19 09:22:33;;;;;;;8.60;7.40;;;6.50;99.90;;;;;;5070056;28;20190;-59
2020/12/19 09:24:58;;;;;;;9.02;8.10;;;6.50;99.90;;;;;;5070312;28;20234;-59
2020/12/19 09:27:24;;;;;;;9.80;8.67;;;6.90;99.90;;;;;;5066386;28;20569;-59
2020/12/19 09:29:50;;;;;;;8.90;8.10;;;7.10;99.90;;;;;;5063925;28;20267;-59
2020/12/19 09:32:15;;;;;;;10.17;7.33;;;7.10;99.90;;;;;;5070525;28;20188;-59
2020/12/19 09:34:41;;;;;;;10.10;9.07;;;7.00;99.90;;;;;;5070787;28;20208;-59
2020/12/19 09:37:07;;;;;;;9.00;8.10;;;7.20;99.90;;;;;;5070239;28;20619;-60
2020/12/19 09:39:32;;;;;;;9.77;7.93;;;7.20;99.90;;;;;;5070552;28;20278;-59
2020/12/19 09:41:58;;;;;;;9.80;8.80;;;7.70;99.90;;;;;;5070491;28;20274;-60
2020/12/19 09:44:23;;;;;;;9.60;8.57;;;7.40;99.90;;;;;;5070585;28;20674;-59
2020/12/19 09:46:49;;;;;;;8.57;7.80;;;7.60;99.90;;;;;;5068894;28;20212;-60
2020/12/19 09:49:15;;;;;;;14.18;10.57;;;7.70;99.90;;;;;;5071561;28;20247;-60
2020/12/19 09:51:41;;;;;;;10.80;9.63;;;7.60;99.90;;;;;;5070346;28;20177;-60
2020/12/19 09:54:06;;;;;;;9.60;8.60;;;7.80;99.90;;;;;;5070131;28;20192;-59
2020/12/19 09:56:41;;;;;;;10.83;9.63;;;7.80;99.90;;;;;;5069515;28;20208;-60
2020/12/19 09:59:07;;;;;;;13.48;9.95;;;8.20;99.90;;;;;;5066801;28;20239;-59
2020/12/19 10:01:32;;;;;;;9.43;8.57;;;7.80;99.90;;;;;;5069589;28;20212;-60
2020/12/19 10:03:58;;;;;;;9.10;8.20;;;8.80;99.90;;;;;;5071053;28;20203;-59
2020/12/19 10:06:23;;;;;;;10.87;9.70;;;9.70;99.90;;;;;;5068553;28;20202;-60
2020/12/19 10:08:49;;;;;;;11.37;9.70;;;10.20;99.90;;;;;;5069787;28;20544;-59
2020/12/19 10:11:20;;;;;;;9.70;8.80;;;9.90;99.90;;;;;;5069129;28;20272;-59
2020/12/19 10:13:46;;;;;;;11.30;9.10;;;10.40;99.90;;;;;;5069638;28;20185;-58
2020/12/19 10:16:11;;;;;;;9.77;8.40;;;10.70;99.90;;;;;;5069484;28;20205;-59
2020/12/19 10:18:37;;;;;;;10.33;9.33;;;11.00;99.60;;;;;;5069461;28;20561;-58
2020/12/19 10:21:07;;;;;;;10.17;8.90;;;11.00;98.60;;;;;;5069454;28;20268;-59
2020/12/19 10:23:34;;;;;;;11.20;9.95;;;11.90;97.90;;;;;;5069259;28;20209;-60
2020/12/19 10:26:00;;;;;;;10.32;9.00;;;12.00;97.40;;;;;;5069507;28;20271;-59
2020/12/19 10:28:26;;;;;;;11.05;9.95;;;12.40;95.70;;;;;;5069016;28;20189;-59
2020/12/19 10:30:51;;;;;;;14.80;13.33;;;12.00;95.40;;;;;;5069183;28;20186;-60
2020/12/19 10:33:17;;;;;;;19.33;17.13;;;12.60;95.20;;;;;;5068692;28;20204;-61
2020/12/19 10:35:42;;;;;;;20.03;12.30;;;13.10;94.30;;;;;;5068918;28;20204;-60
2020/12/19 10:38:08;;;;;;;11.03;9.53;;;13.20;93.90;;;;;;5068992;28;20239;-60
2020/12/19 10:40:34;;;;;;;9.53;8.20;;;14.20;92.70;;;;;;5070609;28;20180;-60
2020/12/19 10:42:59;;;;;;;11.33;10.33;;;15.50;90.70;;;;;;5070934;28;20258;-59
2020/12/19 10:45:25;;;;;;;11.07;10.07;;;16.50;88.30;;;;;;5069707;28;20268;-60
2020/12/19 10:47:50;;;;;;;14.60;13.20;;;17.00;83.40;;;;;;5070079;28;20177;-60
2020/12/19 10:50:18;;;;;;;4.80;4.40;;;16.90;78.40;;;;;;5068984;28;20192;-60
2020/12/19 10:52:45;;;;;;;6.18;5.60;;;17.40;74.20;;;;;;5068908;28;20286;-60
2020/12/19 10:55:10;;;;;;;11.65;6.57;;;17.80;73.00;;;;;;5068863;28;20215;-60
2020/12/19 10:57:36;;;;;;;5.70;5.00;;;18.40;71.70;;;;;;5068531;28;20224;-60
2020/12/19 11:00:05;;;;;;;13.07;6.53;;;18.50;69.90;;;;;;5068671;28;20187;-60
2020/12/19 11:02:31;;;;;;;11.07;5.72;;;17.80;71.10;;;;;;5068288;28;20237;-60
2020/12/19 11:04:57;;;;;;;4.93;4.53;;;17.30;73.00;;;;;;5068840;28;20208;-60
2020/12/19 11:07:23;;;;;;;5.10;4.70;;;16.70;72.10;;;;;;5068124;28;20455;-60
2020/12/19 11:09:49;;;;;;;5.57;4.90;;;16.10;73.90;;;;;;5068508;28;20284;-60
2020/12/19 11:12:14;;;;;;;5.77;5.23;;;15.50;75.90;;;;;;5068376;28;20430;-60
2020/12/19 11:14:40;;;;;;;5.27;4.77;;;14.90;77.90;;;;;;5070216;28;20184;-60
2020/12/19 11:17:05;;;;;;;5.40;4.87;;;14.40;79.50;;;;;;5068399;28;20205;-59
2020/12/19 11:19:31;;;;;;;4.67;4.27;;;14.20;81.10;;;;;;5067878;28;20215;-60
2020/12/19 11:21:56;;;;;;;6.20;5.43;;;14.00;83.10;;;;;;5068148;28;20566;-59
2020/12/19 11:24:23;;;;;;;6.30;5.80;;;13.50;83.70;;;;;;5068124;28;20230;-59
2020/12/19 11:26:48;;;;;;;7.22;5.80;;;13.70;86.50;;;;;;5067978;28;20201;-59
2020/12/19 11:29:14;;;;;;;6.60;4.63;;;13.60;87.90;;;;;;5068164;28;20668;-60
2020/12/19 11:31:40;;;;;;;8.27;4.40;;;13.70;88.70;;;;;;5067785;28;20187;-60
2020/12/19 11:34:06;;;;;;;5.20;4.20;;;13.50;89.40;;;;;;5068420;28;20244;-60
2020/12/19 11:36:38;;;;;;;7.20;4.50;;;13.50;85.70;;;;;;5067522;28;20669;-60
2020/12/19 11:39:08;;;;;;;4.22;3.83;;;13.60;86.70;;;;;;5067795;28;20298;-60
2020/12/19 11:41:35;;;;;;;4.10;3.80;;;13.80;83.60;;;;;;5067978;28;20177;-59
2020/12/19 11:44:00;;;;;;;4.45;4.05;;;13.80;82.60;;;;;;5068232;28;20216;-59
2020/12/19 11:46:26;;;;;;;7.80;5.37;;;13.90;83.70;;;;;;5067554;28;20751;-59
2020/12/19 11:48:52;;;;;;;5.23;4.43;;;13.70;82.60;;;;;;5067049;28;20642;-58
2020/12/19 11:51:24;;;;;;;4.77;4.30;;;13.60;82.60;;;;;;5067212;28;20180;-59
2020/12/19 11:53:53;;;;;;;6.65;4.22;;;13.70;82.90;;;;;;5067402;28;20738;-58
2020/12/19 11:56:19;;;;;;;4.63;3.72;;;13.40;83.90;;;;;;5067315;28;20243;-59
2020/12/19 11:58:44;;;;;;;4.90;4.10;;;13.30;82.90;;;;;;5067186;28;20222;-58
2020/12/19 12:01:10;;;;;;;6.10;4.37;;;13.50;83.90;;;;;;5067717;28;20188;-58
2020/12/19 12:03:36;;;;;;;3.97;3.40;;;13.50;84.60;;;;;;5067642;28;20251;-59
2020/12/19 12:06:01;;;;;;;4.40;3.70;;;13.60;83.10;;;;;;5064105;28;20202;-59
2020/12/19 12:08:27;;;;;;;9.20;4.70;;;13.80;82.90;;;;;;5059699;28;20250;-58
2020/12/19 12:10:52;;;;;;;4.20;3.77;;;14.20;83.30;;;;;;5071367;28;20677;-59
2020/12/19 12:13:18;;;;;;;3.40;3.10;;;14.10;82.10;;;;;;5064826;28;20188;-59
2020/12/19 12:15:44;;;;;;;8.13;7.33;;;14.40;81.50;;;;;;5054101;28;20300;-59
2020/12/19 12:18:09;;;;;;;4.17;3.40;;;14.60;81.20;;;;;;5053390;28;20216;-59
2020/12/19 12:20:35;;;;;;;4.13;3.73;;;14.80;80.80;;;;;;5053940;28;20173;-58
2020/12/19 12:23:00;;;;;;;6.50;2.90;;;14.90;81.20;;;;;;5053621;28;20227;-59
2020/12/19 12:25:26;;;;;;;3.20;2.47;;;15.10;77.00;;;;;;5054087;28;20228;-59
2020/12/19 12:27:52;;;;;;;2.38;2.17;;;15.00;74.40;;;;;;5062023;28;20203;-59
2020/12/19 12:30:18;;;;;;;2.40;2.20;;;14.90;73.20;;;;;;5074517;28;20200;-59
2020/12/19 12:32:44;;;;;;;3.30;3.00;;;15.30;75.20;;;;;;5074064;28;20305;-59
2020/12/19 12:35:10;;;;;;;2.65;2.45;;;15.10;76.10;;;;;;5075514;28;20176;-59
2020/12/19 12:37:35;;;;;;;4.17;3.53;;;14.60;76.10;;;;;;5074080;28;20204;-59
2020/12/19 12:40:02;;;;;;;4.73;3.80;;;15.10;76.10;;;;;;5073717;28;20189;-59
2020/12/19 12:42:27;;;;;;;2.53;2.33;;;14.90;77.90;;;;;;5073857;28;20369;-59
2020/12/19 12:44:53;;;;;;;3.03;2.20;;;14.80;76.90;;;;;;5073465;28;20299;-60
2020/12/19 12:47:19;;;;;;;3.17;2.27;;;14.90;74.90;;;;;;5073898;28;20197;-59
2020/12/19 12:49:45;;;;;;;4.23;1.90;;;14.70;74.40;;;;;;5075416;28;20237;-60
2020/12/19 12:52:10;;;;;;;2.45;2.25;;;14.50;74.40;;;;;;5073931;28;20180;-59
2020/12/19 12:54:36;;;;;;;3.43;3.13;;;14.60;75.20;;;;;;5073845;28;20195;-59